createdAt,value
2023-01-23T00:02:32.238Z,101749.38
2023-01-23T00:07:34.827Z,101752.09
2023-01-23T00:12:40.902Z,101745.56
2023-01-23T00:17:45.309Z,101746.22
2023-01-23T00:22:47.858Z,101744.16
2023-01-23T00:27:50.411Z,101742.13
2023-01-23T00:32:53.051Z,101731.25
2023-01-23T00:37:55.869Z,101745.25
2023-01-23T00:42:58.930Z,101750.44
2023-01-23T00:48:01.452Z,101755.31
2023-01-23T00:53:04.036Z,101754.47
2023-01-23T00:58:06.686Z,101742.06
2023-01-23T01:03:09.350Z,101757.16
2023-01-23T01:08:12.034Z,101764.44
2023-01-23T01:13:14.703Z,101770.50
2023-01-23T01:18:18.434Z,101767.78
2023-01-23T01:23:21.550Z,101774.66
2023-01-23T01:28:24.227Z,101774.25
2023-01-23T01:33:28.365Z,101780.16
2023-01-23T01:38:31.844Z,101778.47
2023-01-23T01:43:35.270Z,101776.56
2023-01-23T01:48:59.305Z,101775.09
2023-01-23T01:54:13.874Z,101781.19
2023-01-23T01:59:18.392Z,101779.50
2023-01-23T02:04:21.406Z,101761.53
2023-01-23T02:09:27.320Z,101784.19
2023-01-23T02:14:30.182Z,101772.66
2023-01-23T02:20:06.672Z,101776.34
2023-01-23T02:25:13.765Z,101777.84
2023-01-23T02:30:18.851Z,101776.09
2023-01-23T02:35:31.472Z,101767.66
2023-01-23T02:40:42.461Z,101765.25
2023-01-23T02:45:49.315Z,101768.38
2023-01-23T02:50:52.029Z,101774.03
2023-01-23T02:55:54.631Z,101770.84
2023-01-23T03:00:58.956Z,101746.25
2023-01-23T03:06:04.172Z,101785.41
2023-01-23T03:11:06.743Z,101778.91
2023-01-23T03:16:10.845Z,101784.88
2023-01-23T03:21:13.971Z,101760.34
2023-01-23T03:26:18.133Z,101777.59
2023-01-23T03:31:22.510Z,101781.09
2023-01-23T03:36:25.197Z,101779.53
2023-01-23T03:41:28.750Z,101781.75
2023-01-23T03:46:36.573Z,101778.25
2023-01-23T03:51:39.211Z,101789.84
2023-01-23T03:56:42.575Z,101757.06
2023-01-23T04:02:00.757Z,101794.13
2023-01-23T04:07:04.509Z,101792.28
2023-01-23T04:12:08.182Z,101796.09
2023-01-23T04:17:14.870Z,101784.94
2023-01-23T04:22:17.605Z,101751.38
2023-01-23T04:27:23.547Z,101796.75
2023-01-23T04:32:27.257Z,101801.53
2023-01-23T04:37:29.993Z,101798.22
2023-01-23T04:42:32.656Z,101804.31
2023-01-23T04:47:44.494Z,101812.44
2023-01-23T04:52:49.521Z,101812.72
2023-01-23T04:57:52.124Z,101802.72
2023-01-23T05:02:59.420Z,101816.59
2023-01-23T05:08:05.275Z,101822.47
2023-01-23T05:13:10.408Z,101824.50
2023-01-23T05:18:13.035Z,101832.28
2023-01-23T05:23:15.869Z,101800.28
2023-01-23T05:28:25.433Z,101840.13
2023-01-23T05:33:31.226Z,101837.16
2023-01-23T05:38:35.323Z,101847.75
2023-01-23T05:43:39.021Z,101855.97
2023-01-23T05:48:42.592Z,101856.94
2023-01-23T05:53:46.915Z,101850.34
2023-01-23T05:58:50.234Z,101864.66
2023-01-23T06:03:58.974Z,101869.97
2023-01-23T06:09:12.324Z,101875.25
2023-01-23T06:14:17.408Z,101873.13
2023-01-23T06:19:20.261Z,101861.66
2023-01-23T06:24:22.915Z,101880.69
2023-01-23T06:29:25.973Z,101874.59
2023-01-23T06:34:28.754Z,101884.09
2023-01-23T06:39:34.841Z,101878.78
2023-01-23T06:44:40.527Z,101879.59
2023-01-23T06:49:43.490Z,101891.38
2023-01-23T06:54:46.545Z,101894.84
2023-01-23T06:59:49.783Z,101871.06
2023-01-23T07:04:54.910Z,101899.59
2023-01-23T07:09:57.566Z,101887.53
2023-01-23T07:15:01.977Z,101875.03
2023-01-23T07:20:11.640Z,101885.19
2023-01-23T07:25:25.489Z,101860.59
2023-01-23T07:30:29.442Z,101894.50
2023-01-23T07:35:32.618Z,101903.34
2023-01-23T07:40:39.145Z,101901.56
2023-01-23T07:45:41.993Z,101885.34
2023-01-23T07:50:45.244Z,101902.56
2023-01-23T07:55:47.829Z,101913.63
2023-01-23T08:00:50.421Z,101910.63
2023-01-23T08:05:52.957Z,101866.75
2023-01-23T08:10:55.501Z,101900.56
2023-01-23T08:15:58.919Z,101911.53
2023-01-23T08:21:03.444Z,101905.78
2023-01-23T08:26:08.871Z,101908.75
2023-01-23T08:31:13.114Z,101913.28
2023-01-23T08:36:15.853Z,101892.94
2023-01-23T08:41:18.620Z,101923.59
2023-01-23T08:46:21.447Z,101932.50
2023-01-23T08:51:24.297Z,101934.28
2023-01-23T08:56:26.885Z,101928.00
2023-01-23T09:01:29.566Z,101934.19
2023-01-23T09:06:32.101Z,101930.88
2023-01-23T09:11:34.726Z,101909.63
2023-01-23T09:16:37.343Z,101923.25
2023-01-23T09:21:40.088Z,101910.09
2023-01-23T09:26:43.722Z,101898.34
2023-01-23T09:31:46.494Z,101906.88
2023-01-23T09:36:49.329Z,101900.34
2023-01-23T09:41:52.102Z,101876.53
2023-01-23T09:47:02.764Z,101902.22
2023-01-23T09:52:12.429Z,101907.00
2023-01-23T09:57:19.600Z,101905.22
2023-01-23T10:02:26.564Z,101908.22
2023-01-23T10:07:35.678Z,101895.84
2023-01-23T10:12:42.787Z,101906.00
2023-01-23T10:18:09.393Z,101899.47
2023-01-23T10:23:24.687Z,101875.19
2023-01-23T10:28:38.260Z,101889.69
2023-01-23T10:33:47.819Z,101886.41
2023-01-23T10:39:00.835Z,101879.66
2023-01-23T10:44:18.863Z,101880.06
2023-01-23T10:49:40.365Z,101877.81
2023-01-23T10:54:49.632Z,101856.59
2023-01-23T10:59:55.685Z,101873.28
2023-01-23T11:04:59.306Z,101865.44
2023-01-23T11:10:18.575Z,101868.56
2023-01-23T11:15:29.759Z,101875.59
2023-01-23T11:20:42.974Z,101871.19
2023-01-23T11:25:50.233Z,101869.47
2023-01-23T11:31:17.795Z,101867.66
2023-01-23T11:36:20.510Z,101871.84
2023-01-23T11:41:35.201Z,101871.41
2023-01-23T11:46:52.678Z,101879.81
2023-01-23T11:52:17.559Z,101873.69
2023-01-23T11:57:42.386Z,101874.66
2023-01-23T12:03:00.286Z,101873.28
2023-01-23T12:08:22.255Z,101879.59
2023-01-23T12:13:57.667Z,101874.28
2023-01-23T12:19:16.535Z,101873.13
2023-01-23T12:24:56.202Z,101875.75
2023-01-23T12:30:50.492Z,101864.53
2023-01-23T12:36:08.543Z,101867.09
2023-01-23T12:41:37.939Z,101861.28
2023-01-23T12:46:58.624Z,101847.91
2023-01-23T12:52:25.703Z,101857.75
2023-01-23T12:58:00.190Z,101852.53
2023-01-23T13:03:54.729Z,101850.94
2023-01-23T13:09:25.277Z,101841.16
2023-01-23T13:14:36.753Z,101851.19
2023-01-23T13:20:01.435Z,101843.47
2023-01-23T13:25:20.037Z,101853.97
2023-01-23T13:30:40.763Z,101845.22
2023-01-23T13:35:49.891Z,101850.28
2023-01-23T13:41:18.701Z,101847.38
2023-01-23T14:25:29.731Z,101832.31
2023-01-23T14:30:32.371Z,101802.25
2023-01-23T14:35:35.682Z,101814.53
2023-01-23T14:40:50.566Z,101826.91
2023-01-23T14:46:08.037Z,101792.56
2023-01-23T14:51:31.088Z,101822.53
2023-01-23T14:56:43.964Z,101822.59
2023-01-23T15:02:05.334Z,101807.00
2023-01-23T15:07:17.613Z,101809.56
2023-01-23T15:12:20.262Z,101802.66
2023-01-23T15:17:23.155Z,101815.78
2023-01-23T15:22:29.128Z,101826.28
2023-01-23T15:27:33.913Z,101824.59
2023-01-23T15:32:39.034Z,101818.56
2023-01-23T15:37:47.301Z,101816.97
2023-01-23T15:43:11.625Z,101813.63
2023-01-23T15:48:14.260Z,101811.78
2023-01-23T15:53:16.908Z,101807.44
2023-01-23T15:58:19.483Z,101809.41
2023-01-23T16:03:22.388Z,101808.97
2023-01-23T16:08:25.418Z,101809.13
2023-01-23T16:13:27.963Z,101801.94
2023-01-23T16:18:31.762Z,101803.47
2023-01-23T16:23:46.299Z,101802.47
2023-01-23T16:28:50.459Z,101788.03
2023-01-23T16:33:53.112Z,101811.88
2023-01-23T16:38:56.656Z,101791.84
2023-01-23T16:43:59.870Z,101800.72
2023-01-23T16:49:02.649Z,101791.06
2023-01-23T16:54:17.630Z,101791.38
2023-01-23T16:59:35.742Z,101797.66
2023-01-23T17:04:38.386Z,101792.25
2023-01-23T17:09:41.056Z,101786.22
2023-01-23T17:14:46.131Z,101786.91
2023-01-23T17:19:48.760Z,101793.84
2023-01-23T17:24:51.559Z,101792.72
2023-01-23T17:29:54.143Z,101789.66
2023-01-23T17:34:59.769Z,101787.88
2023-01-23T17:40:04.455Z,101795.63
2023-01-23T17:45:08.897Z,101794.47
2023-01-23T17:50:23.385Z,101800.09
2023-01-23T17:55:32.477Z,101789.50
2023-01-23T18:00:35.675Z,101777.09
2023-01-23T18:05:38.352Z,101785.13
2023-01-23T18:10:44.299Z,101784.59
2023-01-23T18:16:09.095Z,101779.09
2023-01-23T18:21:20.655Z,101777.75
2023-01-23T18:26:48.047Z,101776.31
2023-01-23T18:32:08.987Z,101772.59
2023-01-23T18:37:53.742Z,101773.66
2023-01-23T18:43:14.587Z,101768.38
2023-01-23T18:48:25.142Z,101767.22
2023-01-23T18:53:47.061Z,101769.75
2023-01-23T18:59:12.598Z,101773.91
2023-01-23T19:04:30.447Z,101762.41
2023-01-23T19:09:38.290Z,101772.88
2023-01-23T19:15:31.646Z,101770.44
2023-01-23T19:20:49.624Z,101749.13
2023-01-23T19:25:55.841Z,101747.69
2023-01-23T19:31:00.087Z,101756.72
2023-01-23T19:36:02.780Z,101761.22
2023-01-23T19:41:19.653Z,101776.00
2023-01-23T19:46:29.793Z,101766.47
2023-01-23T19:51:42.476Z,101761.44
2023-01-23T19:56:51.736Z,101755.59
2023-01-23T20:01:54.632Z,101766.47
2023-01-23T20:06:57.449Z,101774.59
2023-01-23T20:12:02.777Z,101771.63
2023-01-23T20:17:05.587Z,101776.88
2023-01-23T20:22:10.460Z,101773.19
2023-01-23T20:27:13.191Z,101773.25
2023-01-23T20:32:19.951Z,101760.72
2023-01-23T20:37:22.542Z,101766.69
2023-01-23T20:42:29.275Z,101761.69
2023-01-23T20:47:34.237Z,101770.53
2023-01-23T20:52:57.800Z,101756.84
2023-01-23T20:58:19.056Z,101758.50
2023-01-23T21:03:22.054Z,101761.19
2023-01-23T21:08:27.725Z,101721.19
2023-01-23T21:13:33.570Z,101737.69
2023-01-23T21:18:37.169Z,101752.41
2023-01-23T21:23:44.778Z,101728.19
2023-01-23T21:28:53.354Z,101696.53
2023-01-23T21:34:00.291Z,101722.13
2023-01-23T21:39:08.656Z,101729.88
2023-01-23T21:44:13.107Z,101730.75
2023-01-23T21:49:17.976Z,101728.00
2023-01-23T21:54:20.711Z,101723.16
2023-01-23T21:59:27.072Z,101723.09
2023-01-23T22:04:29.906Z,101722.31
2023-01-23T22:09:32.668Z,101719.97
2023-01-23T22:14:35.378Z,101734.66
2023-01-23T22:19:37.910Z,101725.38
2023-01-23T22:24:40.541Z,101728.78
2023-01-23T22:29:47.141Z,101715.97
2023-01-23T22:34:52.364Z,101728.72
2023-01-23T22:39:57.953Z,101709.41
2023-01-23T22:45:00.629Z,101712.06
2023-01-23T22:50:03.567Z,101709.97
2023-01-23T22:55:06.563Z,101705.38
2023-01-23T23:00:15.244Z,101704.03
2023-01-23T23:05:21.997Z,101686.50
2023-01-23T23:10:24.990Z,101674.22
2023-01-23T23:15:28.417Z,101716.09
2023-01-23T23:20:32.050Z,101707.16
2023-01-23T23:25:37.824Z,101710.63
2023-01-23T23:30:40.339Z,101686.16
2023-01-23T23:35:43.806Z,101694.69
2023-01-23T23:40:58.313Z,101693.13
2023-01-23T23:46:03.791Z,101684.59
2023-01-23T23:51:08.666Z,101690.59
2023-01-23T23:56:20.307Z,101690.00
